Donalda, Canada
Current Conditions -  °F | °C
As of 6:00 PM on Tuesday 21 Oct 2014 (Local Time) from CYQF Reporting Station
Broken Clouds Broken Clouds  
Wind Chill: 52°   Ceiling: 25000
Heat Index: 52°   Visibility: 15mi
Dew Point: 37°   Wind: 5mph
Humidity: 58%   Direction: 170°S
Pressure: 29.68"   Gusts: NA
Location:  52.58°N, 112.57°W
Report Text: CYQF 220000Z 17004KT 15SM FEW120 BKN250 11/03 A2968 RMK AC2CI5 SLP072 DENSITY ALT 3400FT
Loading
Personal Weather Stations






























Interactive Weather Map
Tropical Storm Tracking
New forecast layout! Learn more

10-Day Weather Forecast

Advertisements
Track Severe Weather on mobile